Tiempo atmosférico en la estación meteorológica de Fuerteventura Aeropuerto, Las Palmas (25 m.)



Fecha
DESCASC
Temp. máxima en grados centígrados (hora)
DESCASC
Temp. mínima en grados centígrados (hora)
DESCASC
Temp. media en grados centígrados
DESCASC
Racha de viento máxima en m/sg (hora)
DESCASC
Velocidad máxima media en intervalos de 10 minutos(hora)
DESCASC
Precipitaciones diarias en mm
DESCASC
Precipitaciones de 00:00 a 06:00 en mm
DESCASC
Precipitaciones de 06:00 a 12:00 en mm
DESCASC
Precipitaciones de 12:00 a 18:00 en mm
DESCASC
Precipitaciones de 18:00 a 24:00 en mm
DESCASC
16-04-2019 21.5 (15:30) 17.5 (05:00) 19.5 9.17 (00:10) 7.5 (00:10) 0 0 0 0 0
15-04-2019 22.3 (15:10) 16.1 (07:00) 19.2 10.28 (22:30) 8.06 (22:40) 0 0 0 0 0
14-04-2019 23.5 (18:30) 15.6 (00:00) 19.6 15 (18:40) 10.56 (20:40) 0 0 0 0 0
13-04-2019 22.4 (15:10) 15.5 (00:00) 18.9 12.5 (08:50) 10 (09:00) 0 0 0 0 0
12-04-2019 21.8 (13:20) 15.9 (00:00) 18.8 13.89 (20:10) 11.39 (19:30) 0 0 0 0 0
11-04-2019 23.3 (16:30) 16.3 (00:00) 19.8 15.28 (17:50) 12.5 (17:50) 0 0 0 0 0
10-04-2019 23.3 (14:20) 16.8 (00:00) 20 16.39 (15:20) 12.22 (18:00) 0 0 0 0 0
09-04-2019 22.2 (13:20) 15.9 (00:00) 19.1 11.67 (16:30) 9.72 (18:50) 0 0 0 0 0
08-04-2019 22.9 (14:30) 15.3 (00:00) 19.1 12.5 (14:50) 9.72 (14:50) 0 0 0 0 0
07-04-2019 23.7 (15:40) 15.2 (00:00) 19.5 11.67 (14:00) 8.06 (16:30) 0 0 0 0 0
06-04-2019 22.4 (15:50) 14.7 (00:00) 18.5 16.39 (18:20) 10.56 (15:20) 0 0 0 0 0
05-04-2019 23.1 (15:30) 14.8 (00:00) 19 15.28 (13:50) 10.83 (19:20) 1.7 0 0.7 0.1 0.9
04-04-2019 23.8 (16:10) 15.8 (00:00) 19.8 13.89 (15:20) 9.17 (17:40) 0 0 0 0 0
03-04-2019 23.2 (14:50) 17 (00:00) 20.1 14.44 (14:20) 9.72 (16:30) 0 0 0 0 0
02-04-2019 -- (--) -- (--) -- -- (--) -- (--) -- 0 0 0 --
01-04-2019 21 (13:10) 14.7 (00:00) 17.8 7.78 (08:20) 4.17 (00:10) 0 0 0 0 0
31-03-2019 24.3 (14:10) 14.2 (00:00) 19.2 14.44 (18:10) 9.17 (16:50) 0 0 0 0 0
30-03-2019 20.8 (11:30) 13.9 (00:00) 17.3 11.67 (19:40) 5.83 (20:50) 0.8 0 0 0.8 0
29-03-2019 21.3 (15:30) 15.5 (00:00) 18.4 8.33 (20:40) 5.83 (18:50) 0 0 0 0 0
28-03-2019 20.9 (12:00) 14.5 (00:00) 17.7 6.67 (12:40) 5 (12:40) 0 0 0 0 0
27-03-2019 21.6 (15:40) 13.4 (00:00) 17.5 7.22 (15:20) 5.56 (15:20) 0 0 0 0 0
26-03-2019 19.9 (12:20) 14.2 (00:00) 17 7.22 (12:20) 5.83 (12:20) 2.3 0 0 2.3 0
25-03-2019 23.3 (15:00) 15.7 (00:00) 19.5 13.89 (13:50) 8.33 (19:50) -- 0 0 -- 0.2
24-03-2019 21 (12:50) 14.5 (00:00) 17.8 11.67 (18:50) 8.89 (18:50) 0 0 0 0 0
23-03-2019 21.7 (16:50) 15.8 (00:00) 18.8 12.78 (00:10) 10.56 (00:10) 0 0 0 0 0
22-03-2019 21.4 (12:40) 16 (00:00) 18.7 15 (06:20) 11.67 (20:00) 0 0 0 0 0
21-03-2019 22 (13:40) 16.7 (00:00) 19.4 14.44 (19:10) 11.39 (20:40) -- -- 0 0 0
20-03-2019 21.5 (15:30) 14.4 (00:00) 17.9 12.78 (20:20) 9.72 (20:00) 0 0 0 0 0
19-03-2019 20.9 (13:30) 15.8 (00:00) 18.3 13.89 (01:30) 11.11 (01:40) 0 0 0 0 0

Gráficas

Temp. máximas Temp. mínimas Temp. medias Precipitaciones Rachas de viento máximas Velocidades máximas media en intervalos de 10 minutos

Datos horarios

Fecha y hora oficial Temperatura (ºC) Velocidad del viento (km/h) Dirección del viento Racha (km/h) Dirección de racha Precipitación (mm) Presión (hPa) Tendencia (hPa) Humedad (%)
2019-04-17 23:00:00 19 18 Norte 28 Norte 0 1014.4 2.3 69
2019-04-17 22:00:00 19.8 21 Norte 33 Norte 0 1013.6 2.4 64
2019-04-17 21:00:00 20.1 19 Norte 30 Norte 0 1012.5 1.6 64
2019-04-17 20:00:00 21.1 23 Noroeste 41 Norte 0 1012.1 1.1 59
2019-04-17 19:00:00 22.8 24 Noroeste 41 Oeste 0 1011.2 0.1 54
2019-04-17 18:00:00 23.4 25 Noroeste 45 Noroeste 0 1010.9 -0.5 54
2019-04-17 17:00:00 23.3 28 Noroeste 45 Noroeste 0 1011 -0.7 54
2019-04-17 16:00:00 22.4 14 Noroeste 26 Oeste 0 1011.1 -0.8 66
2019-04-17 15:00:00 21 12 Sudeste 22 Sudeste 0 1011.4 -0.8 68
2019-04-17 14:00:00 21.6 14 Sudeste 22 Sudeste 0 1011.7 -0.4 65
2019-04-17 13:00:00 21.7 17 Sudeste 39 Oeste 0 1011.9 0.3 65
2019-04-17 12:00:00 22.3 13 Oeste 42 Oeste 0 1012.2 1.2 56
2019-04-17 11:00:00 21.1 13 Noroeste 35 Oeste 0 1012.1 1.3 59
2019-04-17 10:00:00 20 16 Noroeste 28 Noroeste 0 1011.6 1.1 63
2019-04-17 09:00:00 18.4 3 Noroeste 22 Noroeste 0 1011 0.8 75
2019-04-17 08:00:00 16.6 9 Oeste 22 Oeste 0 1010.8 0.9 82
2019-04-17 07:00:00 16.6 11 Oeste 15 Oeste 0 1010.5 0.4 84
2019-04-17 06:00:00 16.9 6 Oeste 15 Oeste 0 1010.2 -0.2 83
2019-04-17 05:00:00 17 4 Oeste 13 Norte 0 1009.9 -1.2 83
2019-04-17 04:00:00 17.2 8 Norte 17 Norte 0 1010.1 -1 82
2019-04-17 03:00:00 18.1 11 Norte 18 Noroeste 0 1010.4 -1.5 80
2019-04-17 02:00:00 18.6 12 Norte 21 Noroeste 0 1011.1 -0.3 76
2019-04-17 01:00:00 18.7 8 Norte 17 Norte 0 1011.1 0.7 73
2019-04-17 00:00:00 18.9 14 Norte 24 Noroeste 0 1011.9 1.9 73
2019-04-16 23:00:00 19.2 12 Norte 26 Oeste 0 1011.4 1.7 72
2019-04-16 22:00:00 19.7 20 Oeste 33 Oeste 0 1010.4 0.6 70
2019-04-16 21:00:00 20.1 12 Oeste 32 Sudoeste 0 1010 0.1 76
2019-04-16 20:00:00 20.1 12 Sur 15 Sudeste 0 1009.7 -0.5 79
2019-04-16 19:00:00 20.5 12 Este 18 Este 0 1009.8 -1.1 75
2019-04-16 18:00:00 21.2 13 Nordeste 22 Nordeste 0 1009.9 -2 72
2019-04-16 17:00:00 20.9 12 Nordeste 18 Nordeste 0 1010.2 -2.5 71
2019-04-16 16:00:00 21.4 10 Este 21 Este 0 1010.9 -2.8 69
2019-04-16 15:00:00 21.1 13 Este 18 Este 0 1011.9 -2.3 69
2019-04-16 14:00:00 21 14 Este 24 Nordeste 0 1012.7 -1.6 68
2019-04-16 13:00:00 21.1 14 Nordeste 24 Nordeste 0 1013.7 -0.6 66
2019-04-16 12:00:00 20.8 15 Nordeste 21 Nordeste 0 1014.2 0.3 67
2019-04-16 11:00:00 20.1 13 Nordeste 22 Nordeste 0 1014.3 1.2 69
2019-04-16 10:00:00 19.6 15 Nordeste 21 Nordeste 0 1014.3 1.5 74
2019-04-16 09:00:00 18.9 14 Nordeste 22 Nordeste 0 1013.9 1.4 74
2019-04-16 08:00:00 18.1 14 Nordeste 28 Nordeste 0 1013.1 0.3 75
2019-04-16 07:00:00 17.9 18 Nordeste 28 Nordeste 0 1012.8 -0.6 77
2019-04-16 06:00:00 17.8 21 Nordeste 28 Norte 0 1012.5 -1.7 80
2019-04-16 05:00:00 17.5 21 Norte 28 Nordeste 0 1012.8 -2.2 82
2019-04-16 04:00:00 17.8 22 Nordeste 28 Nordeste 0 1013.4 -2.2 83
2019-04-16 03:00:00 17.9 21 Nordeste 28 Nordeste 0 1014.2 -1.8 82
2019-04-16 02:00:00 18.3 22 Nordeste 30 Nordeste 0 1015 -1.3 83
2019-04-16 01:00:00 18.4 24 Nordeste 33 Nordeste 0 1015.6 -0.5 82
2019-04-16 00:00:00 18.6 26 Nordeste 35 Nordeste 0 1016 0.5 80
2019-04-15 23:00:00 18.6 28 Nordeste 37 Nordeste 0 1016.3 1.4 82
2019-04-15 22:00:00 19.1 23 Nordeste 32 Nordeste 0 1016.1 1.3 84
2019-04-15 21:00:00 19.1 18 Nordeste 24 Nordeste 0 1015.5 0.6 80
2019-04-15 20:00:00 19.8 16 Nordeste 24 Nordeste 0 1014.9 0.1 75
2019-04-15 19:00:00 20.4 17 Nordeste 24 Nordeste 0 1014.8 -0.3 73
2019-04-15 18:00:00 21 18 Nordeste 24 Nordeste 0 1014.9 -0.8 71
2019-04-15 17:00:00 21.3 16 Nordeste 22 Nordeste 0 1014.8 -1.4 69
2019-04-15 16:00:00 21.6 16 Nordeste 22 Nordeste 0 1015.1 -1.6 67
2019-04-15 15:00:00 21.9 17 Nordeste 24 Nordeste 0 1015.7 -1.2 65
2019-04-15 14:00:00 21.9 17 Nordeste 22 Nordeste 0 1016.2 -0.5 64
2019-04-15 13:00:00 21.5 14 Nordeste 21 Nordeste 0 1016.7 0.3 64
2019-04-15 12:00:00 20.9 16 Nordeste 22 Nordeste 0 1016.9 0.9 66
2019-04-15 11:00:00 20.5 19 Nordeste 32 Nordeste 0 1016.7 1.6 67
2019-04-15 10:00:00 20.4 25 Nordeste 33 Norte 0 1016.4 1.8 68
2019-04-15 09:00:00 18.7 21 Norte 26 Norte 0 1016 2 70
2019-04-15 08:00:00 16.9 15 Norte 28 Norte 0 1015.1 1.1 74
2019-04-15 07:00:00 16.1 14 Norte 18 Norte 0 1014.6 0.7 76
2019-04-15 06:00:00 16.3 13 Norte 22 Norte 0 1014 0.1 76
2019-04-15 05:00:00 17.1 19 Norte 30 Norte 0 1014 -0.2 74
2019-04-15 04:00:00 17.3 18 Norte 28 Norte 0 1013.9 -0.5 74
2019-04-15 03:00:00 17.4 18 Noroeste 26 Norte 0 1013.9 -0.4 77
2019-04-15 02:00:00 17.7 17 Noroeste 30 Oeste 0 1014.2 0.4 78
2019-04-15 01:00:00 18 19 Noroeste 35 Oeste 0 1014.4 1.5 77
2019-04-15 00:00:00 18.1 25 Oeste 39 Oeste 0 1014.3 2.4 78
2019-04-14 23:00:00 18.7 20 Oeste 42 Oeste 0 1013.8 2.2 72
2019-04-14 22:00:00 18.6 27 Noroeste 48 Oeste 0 1012.9 1.7 76
2019-04-14 21:00:00 19.4 9 Este 54 Oeste 0 1011.9 0.6 72
2019-04-14 20:00:00 20.4 33 Noroeste 52 Noroeste 0 1011.6 0.6 69
2019-04-14 19:00:00 22.7 30 Oeste 54 Noroeste 0 1011.2 -0.4 60
2019-04-14 18:00:00 21.4 12 Sudeste 21 Sudeste 0 1011.3 -0.8 73
2019-04-14 17:00:00 21.2 15 Sudeste 21 Sudeste 0 1011 -1.3 74
2019-04-14 16:00:00 21.2 12 Sudeste 18 Sudeste 0 1011.6 -1.2 74
2019-04-14 15:00:00 21.1 12 Este 18 Este 0 1012.1 -1.1 73
2019-04-14 14:00:00 21.1 12 Nordeste 18 Este 0 1012.3 -0.4 73
2019-04-14 13:00:00 20.8 13 Nordeste 18 Este 0 1012.8 0.3 73
2019-04-14 12:00:00 20.7 12 Nordeste 21 Nordeste 0 1013.2 0.4 73
2019-04-14 11:00:00 20.2 15 Nordeste 26 Norte 0 1012.7 0.2 73
2019-04-14 10:00:00 19.4 14 Nordeste 24 Norte 0 1012.5 0.7 71
2019-04-14 09:00:00 18 15 Norte 26 Noroeste 0 1012.8 1.1 74
2019-04-14 08:00:00 16.1 10 Noroeste 21 Noroeste 0 1012.5 0.1 81
2019-04-14 07:00:00 15.8 14 Norte 24 Norte 0 1011.8 -1.4 77
2019-04-14 06:00:00 15.7 17 Norte 22 Norte 0 1011.7 -2.2 70
2019-04-14 05:00:00 15.8 16 Norte 21 Norte 0 1012.4 -2 72
2019-04-14 04:00:00 16.1 14 Norte 18 Norte 0 1013.2 -1.9 78
2019-04-14 03:00:00 16.7 15 Norte 33 Nordeste 0 1013.9 -1.1 81
2019-04-14 02:00:00 17.4 27 Nordeste 33 Norte 0 1014.4 -0.8 82
2019-04-14 01:00:00 17.1 15 Norte 33 Norte 0 1015.1 0.1 81
2019-04-14 00:00:00 17.7 28 Norte 39 Norte 0 1015 0.8 80
2019-04-13 23:00:00 17.9 23 Norte 35 Norte 0 1015.2 1.4 74
2019-04-13 22:00:00 18.4 26 Norte 33 Norte 0 1015 1.6 70
2019-04-13 21:00:00 19.3 27 Norte 41 Norte 0 1014.2 0.7 67
2019-04-13 20:00:00 19.7 24 Nordeste 33 Nordeste 0 1013.8 0.1 79
2019-04-13 19:00:00 20.6 27 Nordeste 37 Nordeste 0 1013.4 -1.1 74
2019-04-13 18:00:00 21.2 28 Nordeste 37 Nordeste 0 1013.5 -1.6 69
2019-04-13 17:00:00 21.7 26 Nordeste 37 Nordeste 0 1013.7 -1.9 65
2019-04-13 16:00:00 21.7 28 Nordeste 35 Nordeste 0 1014.5 -1.4 62
2019-04-13 15:00:00 22 26 Nordeste 35 Nordeste 0 1015.1 -1.1 62
2019-04-13 14:00:00 21.7 27 Nordeste 39 Nordeste 0 1015.6 -0.6 65
2019-04-13 13:00:00 21.5 31 Nordeste 41 Nordeste 0 1015.9 0.1 65
2019-04-13 12:00:00 21 33 Nordeste 41 Nordeste 0 1016.2 0.5 66
2019-04-13 11:00:00 20.2 30 Nordeste 45 Norte 0 1016.2 0.6 65
2019-04-13 10:00:00 19.2 34 Norte 42 Norte 0 1015.8 0.3 68
2019-04-13 09:00:00 17.9 36 Norte 45 Norte 0 1015.7 0.4 72
2019-04-13 08:00:00 15.9 19 Norte 32 Norte 0 1015.6 0.4 76
2019-04-13 07:00:00 15.5 18 Norte 30 Norte 0 1015.5 0.5 74
2019-04-13 06:00:00 15.9 21 Norte 33 Norte 0 1015.3 -0.1 74
2019-04-13 05:00:00 16 24 Norte 35 Norte 0 1015.2 -1 73
2019-04-13 04:00:00 16.1 17 Norte 30 Norte 0 1015 -1.7 71
2019-04-13 03:00:00 16.3 21 Norte 37 Norte 0 1015.4 -1.3 70
2019-04-13 02:00:00 16.6 32 Norte 42 Norte 0 1016.2 -0.6 69
2019-04-13 01:00:00 16.8 26 Norte 37 Norte 0 1016.7 0.4 68
2019-04-13 00:00:00 17.3 26 Norte 41 Norte 0 1016.7 1.2 67
2019-04-12 23:00:00 17.7 29 Norte 41 Norte 0 1016.8 1.7 67
2019-04-12 22:00:00 18 27 Norte 45 Norte 0 1016.3 1.6 64
2019-04-12 21:00:00 18.6 30 Norte 50 Norte 0 1015.5 1 67
2019-04-12 20:00:00 19.6 39 Norte 48 Norte 0 1015.1 0.7 62
2019-04-12 19:00:00 20.6 34 Norte 45 Norte 0 1014.7 -0.1 56
2019-04-12 18:00:00 20.4 31 Nordeste 45 Nordeste 0 1014.5 -0.7 67
2019-04-12 17:00:00 21 35 Nordeste 45 Nordeste 0 1014.4 -1.5 62
2019-04-12 16:00:00 21.4 35 Nordeste 46 Nordeste 0 1014.8 -1.5 60
2019-04-12 15:00:00 21.5 34 Nordeste 45 Nordeste 0 1015.2 -1.5 58
2019-04-12 14:00:00 21.2 32 Nordeste 41 Nordeste 0 1015.9 -0.8 58
2019-04-12 13:00:00 21.4 30 Nordeste 42 Nordeste 0 1016.3 -0.1 52
2019-04-12 12:00:00 20.8 37 Nordeste 45 Nordeste 0 1016.7 0.4 55
2019-04-12 11:00:00 19.4 33 Norte 42 Nordeste 0 1016.7 0.9 59
2019-04-12 10:00:00 18.7 26 Norte 35 Norte 0 1016.4 0.7 60
2019-04-12 09:00:00 17.2 21 Norte 30 Norte 0 1016.3 0.9 62
2019-04-12 08:00:00 16 19 Norte 33 Norte 0 1015.8 0.7 67
2019-04-12 07:00:00 16 23 Norte 39 Norte 0 1015.7 0.3 66
2019-04-12 06:00:00 16.4 27 Norte 35 Norte 0 1015.4 -0.7 65
2019-04-12 05:00:00 16.5 23 Norte 35 Norte 0 1015.1 -1.6 65
2019-04-12 04:00:00 16.5 32 Norte 46 Norte 0 1015.4 -1.7 65
2019-04-12 03:00:00 16.6 32 Norte 41 Norte 0 1016.1 -1.3 65
2019-04-12 02:00:00 16.9 34 Norte 46 Norte 0 1016.7 -0.6 64
2019-04-12 01:00:00 17.2 32 Norte 42 Norte 0 1017.1 0.6 64
2019-04-12 00:00:00 17.5 31 Norte 50 Norte 0 1017.4 1.6 63
2019-04-11 23:00:00 17.7 33 Norte 50 Norte 0 1017.3 1.8 63
2019-04-11 22:00:00 18.1 39 Norte 46 Norte 0 1016.5 1.4 63
2019-04-11 21:00:00 18.2 33 Norte 46 Norte 0 1015.8 0.9 64
2019-04-11 20:00:00 18.9 36 Norte 54 Norte 0 1015.5 0.7 58
2019-04-11 19:00:00 20.4 38 Norte 54 Norte 0 1015.1 0.5 54
2019-04-11 18:00:00 21.6 39 Norte 55 Norte 0 1014.9 -0.3 51
2019-04-11 17:00:00 22.4 36 Norte 54 Norte 0 1014.8 -0.9 49
2019-04-11 16:00:00 22.3 36 Nordeste 46 Nordeste 0 1014.6 -1.9 56
2019-04-11 15:00:00 22.1 40 Nordeste 48 Nordeste 0 1015.2 -1.8 53
2019-04-11 14:00:00 22.2 36 Nordeste 52 Nordeste 0 1015.7 -1.4 54
2019-04-11 13:00:00 21.9 41 Nordeste 54 Nordeste 0 1016.5 -0.3 55
2019-04-11 12:00:00 21.5 38 Norte 54 Norte 0 1017 0.4 52
2019-04-11 11:00:00 20.9 41 Norte 54 Norte 0 1017.1 0.8 53
2019-04-11 10:00:00 19.6 34 Norte 50 Norte 0 1016.8 1.1 60
2019-04-11 09:00:00 18 38 Norte 52 Norte 0 1016.6 1.1 62
2019-04-11 08:00:00 17.5 39 Norte 50 Norte 0 1016.3 0.6 65
2019-04-11 07:00:00 17.2 37 Norte -- -- -- 1015.7 -0.2 67
2019-04-11 06:00:00 16.8 29 Norte 39 Norte 0 1015.5 -0.8 66
2019-04-11 05:00:00 16.5 30 Norte 42 Norte 0 1015.7 -0.9 67
2019-04-11 04:00:00 16.5 27 Norte 42 Norte 0 1015.9 -1.2 66
2019-04-11 03:00:00 16.9 30 Norte 46 Norte 0 1016.3 -0.9 67
2019-04-11 02:00:00 17.3 24 Norte 42 Norte 0 1016.6 -0.6 66
2019-04-11 01:00:00 17.6 27 Norte 46 Norte 0 1017.1 0.6 63
2019-04-11 00:00:00 17.5 27 Norte 41 Norte 0 1017.2 1.1 64
2019-04-10 23:00:00 17.5 27 Norte 45 Norte 0 1017.2 1.5 63
2019-04-10 22:00:00 18.4 26 Norte 45 Norte 0 1016.5 1.6 63
2019-04-10 21:00:00 18.6 32 Norte 46 Norte 0 1016.1 1.2 59
2019-04-10 20:00:00 19.3 36 Norte 54 Norte 0 1015.7 0.9 61
2019-04-10 19:00:00 20.3 43 Norte 58 Norte 0 1014.9 -0.3 55
2019-04-10 18:00:00 21.4 44 Norte 55 Norte 0 1014.9 -0.4 52
2019-04-10 17:00:00 21.9 41 Norte 58 Norte 0 1014.8 -0.9 48
2019-04-10 16:00:00 21.7 38 Norte 59 Norte 0 1015.2 -1.1 53
2019-04-10 15:00:00 22.5 33 Norte 50 Norte 0 1015.3 -1.4 48
2019-04-10 14:00:00 22.4 36 Nordeste 46 Nordeste 0 1015.7 -1 53
2019-04-10 13:00:00 21.5 31 Norte 45 Norte 0 1016.3 -0.1 50
2019-04-10 12:00:00 21.3 35 Norte 50 Norte 0 1016.7 0.4 49
2019-04-10 11:00:00 19.5 26 Nordeste 46 Norte 0 1016.7 0.9 57
2019-04-10 10:00:00 18.6 40 Norte 54 Norte 0 1016.4 0.9 54
2019-04-10 09:00:00 17.8 34 Norte 46 Norte 0 1016.3 1.1 55
2019-04-10 08:00:00 17 26 Norte 37 Norte 0 1015.8 0.6 59
2019-04-10 07:00:00 17 29 Norte 45 Norte 0 1015.5 0.5 57
2019-04-10 06:00:00 17.3 30 Norte 46 Norte 0 1015.2 -0.2 58
2019-04-10 05:00:00 17.4 31 Norte 50 Norte 0 1015.2 -0.8 58
2019-04-10 04:00:00 17.3 27 Norte 39 Norte 0 1015 -1.5 63
2019-04-10 03:00:00 17.1 24 Norte 42 Norte 0 1015.4 -1.4 59
2019-04-10 02:00:00 17.4 27 Norte 46 Norte 0 1016 -1.1 60
2019-04-10 01:00:00 17.6 31 Norte 45 Norte 0 1016.5 0.1 61
2019-04-10 00:00:00 17.6 23 Norte 41 Norte 0 1016.8 1.1 61
2019-04-09 23:00:00 17.6 28 Norte 42 Norte 0 1017.1 1.8 60
2019-04-09 22:00:00 17.8 29 Norte 41 Norte 0 1016.4 1.3 62
2019-04-09 21:00:00 18 30 Norte 41 Norte 0 1015.7 0.7 60
2019-04-09 20:00:00 19.2 31 Norte 41 Norte 0 1015.3 0.2 59
2019-04-09 19:00:00 19.7 33 Nordeste 42 Nordeste 0 1015.1 -0.4 68
2019-04-09 18:00:00 20.6 31 Nordeste 42 Nordeste 0 1015 -1.2 68
2019-04-09 17:00:00 21 32 Nordeste 42 Nordeste 0 1015.1 -1.5 66
2019-04-09 16:00:00 21.1 31 Nordeste 39 Nordeste 0 1015.5 -1.7 68
2019-04-09 15:00:00 21 27 Nordeste 33 Nordeste 0 1016.2 -1.3 66
2019-04-09 14:00:00 21.6 27 Nordeste 35 Nordeste 0 1016.6 -0.9 64
2019-04-09 13:00:00 21.7 21 Nordeste 37 Nordeste 0 1017.2 -0.1 60
2019-04-09 12:00:00 20.7 24 Nordeste 33 Nordeste 0 1017.5 0.4 63
2019-04-09 11:00:00 20.1 27 Norte 33 Norte 0 1017.5 0.7 67
2019-04-09 10:00:00 19.8 19 Norte 30 Norte 0 1017.3 0.7 72
2019-04-09 09:00:00 18.5 13 Norte 26 Oeste 0 1017.1 0.7 71
2019-04-09 08:00:00 17.5 12 Noroeste 22 Norte 0 1016.8 0.8 73
2019-04-09 07:00:00 16.6 14 Noroeste 22 Norte 0 1016.6 0.4 75
2019-04-09 06:00:00 16.1 17 Norte 22 Noroeste 0 1016.4 -0.4 78
2019-04-09 05:00:00 16 17 Norte 22 Norte 0 1016 -1.5 78
2019-04-09 04:00:00 16 16 Norte 22 Norte 0 1016.2 -1.8 76
2019-04-09 03:00:00 16.1 15 Norte 18 Norte 0 1016.8 -1.4 73
2019-04-09 02:00:00 16 14 Norte 17 Norte 0 1017.5 -0.9 69
2019-04-09 01:00:00 16.5 14 Norte 22 Norte 0 1018 0 65
2019-04-09 00:00:00 16.9 15 Norte 26 Norte 0 1018.2 1 60
2019-04-08 23:00:00 17.7 20 Norte 30 Norte 0 1018.4 1.8 58
2019-04-08 22:00:00 18.1 23 Norte 32 Norte 0 1018 2 58
2019-04-08 21:00:00 18.7 21 Norte 35 Norte 0 1017.2 1.1 56
2019-04-08 20:00:00 19.9 27 Norte 39 Noroeste 0 1016.6 0.5 51
2019-04-08 19:00:00 21.3 25 Norte 39 Norte 0 1016 -0.7 49
2019-04-08 18:00:00 22.2 23 Norte 37 Noroeste 0 1016.1 -0.9 47
2019-04-08 17:00:00 20.9 29 Nordeste 37 Nordeste 0 1016.1 -1.3 59
2019-04-08 16:00:00 21.1 28 Nordeste 41 Nordeste 0 1016.7 -1.5 63
2019-04-08 15:00:00 22 33 Nordeste 45 Nordeste 0 1017 -1.8 61
2019-04-08 14:00:00 22.3 27 Nordeste 42 Norte 0 1017.4 -1.2 54
2019-04-08 13:00:00 21.1 23 Nordeste 32 Nordeste 0 1018.2 -0.2 62
2019-04-08 12:00:00 19.7 14 Nordeste 21 Nordeste 0 1018.8 0.8 70
2019-04-08 11:00:00 19.5 14 Norte 24 Norte 0 1018.6 1 67
2019-04-08 10:00:00 18.7 13 Noroeste 32 Oeste 0 1018.4 1.2 70
2019-04-08 09:00:00 17.7 15 Noroeste 28 Noroeste 0 1018 1.2 75
2019-04-08 08:00:00 15.5 11 Noroeste 24 Noroeste 0 1017.6 0.9 81
2019-04-08 07:00:00 15.9 13 Noroeste 18 Noroeste 0 1017.2 0 81
2019-04-08 06:00:00 16 10 Noroeste 15 Noroeste 0 1016.8 -0.9 81
2019-04-08 05:00:00 16.4 12 Noroeste 15 Noroeste 0 1016.7 -1.6 80
2019-04-08 04:00:00 16.5 13 Noroeste 18 Noroeste 0 1017.2 -1.4 78
2019-04-08 03:00:00 16.6 10 Noroeste 15 Noroeste 0 1017.7 -1 77
2019-04-08 02:00:00 16.7 10 Noroeste 13 Noroeste 0 1018.3 -0.5 76
2019-04-08 01:00:00 17.3 12 Noroeste 17 Norte 0 1018.6 0.2 74
2019-04-08 00:00:00 17.7 12 Norte 22 Norte 0 1018.7 1 73
2019-04-07 23:00:00 18.2 18 Norte 24 Norte 0 1018.8 1.6 73
2019-04-07 22:00:00 18.5 18 Norte 30 Norte 0 1018.4 1.3 70
2019-04-07 21:00:00 19.1 21 Norte 35 Noroeste 0 1017.7 0.9 66
2019-04-07 20:00:00 20.1 22 Norte 30 Oeste 0 1017.2 0.3 60
2019-04-07 19:00:00 21.4 24 Norte 35 Noroeste 0 1017.1 -0.3 56
2019-04-07 18:00:00 22.6 26 Noroeste 41 Noroeste 0 1016.8 -1 50
2019-04-07 17:00:00 23.4 28 Noroeste 41 Noroeste 0 1016.9 -1.4 48
2019-04-07 16:00:00 22.9 29 Norte 42 Norte 0 1017.4 -1.3 51
2019-04-07 15:00:00 23 23 Noroeste 39 Norte 0 1017.8 -0.8 51
2019-04-07 14:00:00 23 28 Noroeste 42 Norte 0 1018.3 -0.1 51
2019-04-07 13:00:00 22 27 Noroeste 39 Norte 0 1018.7 0.8 54
2019-04-07 12:00:00 22.1 25 Norte 39 Noroeste 0 1018.6 1 54
2019-04-07 11:00:00 21.1 24 Norte 39 Noroeste 0 1018.4 1.4 58
2019-04-07 10:00:00 19.7 27 Norte 39 Noroeste 0 1017.9 1.2 64
2019-04-07 09:00:00 17.9 19 Noroeste 26 Norte 0 1017.6 1 70
2019-04-07 08:00:00 15.9 15 Noroeste 28 Noroeste 0 1017 0.2 74
2019-04-07 07:00:00 15.4 13 Noroeste 21 Noroeste 0 1016.7 -0.2 75
2019-04-07 06:00:00 15.7 14 Noroeste 18 Norte 0 1016.6 -0.8 72
2019-04-07 05:00:00 15.4 11 Noroeste 13 Noroeste 0 1016.8 -1.3 73
2019-04-07 04:00:00 15.6 12 Noroeste 13 Noroeste 0 1016.9 -1.9 72
2019-04-07 03:00:00 16.2 10 Noroeste 17 Norte 0 1017.4 -1.5 66
2019-04-07 02:00:00 15.6 13 Noroeste 17 Noroeste 0 1018.1 -0.8 67
2019-04-07 01:00:00 16.2 13 Noroeste 22 Norte 0 1018.8 0.4 64
2019-04-07 00:00:00 16.8 18 Norte 26 Norte 0 1018.9 1.3 63
2019-04-06 23:00:00 16.9 18 Norte 28 Norte 0 1018.9 1.7 63
2019-04-06 22:00:00 17.4 20 Norte 35 Norte 0 1018.4 1.6 63
2019-04-06 21:00:00 17.9 27 Norte 37 Noroeste 0 1017.6 1 61
2019-04-06 20:00:00 18.6 31 Norte 42 Norte 0 1017.2 0.6 55
2019-04-06 19:00:00 19.9 30 Norte 59 Norte 0 1016.8 0 47
2019-04-06 18:00:00 20.9 31 Norte 50 Norte 0 1016.6 -0.4 44
2019-04-06 17:00:00 20.6 35 Norte 55 Noroeste 0 1016.6 -0.8 49
2019-04-06 16:00:00 21.8 31 Norte 54 Norte 0 1016.8 -0.8 42
2019-04-06 15:00:00 21.6 28 Norte 48 Noroeste 0 1017 -0.7 44
2019-04-06 14:00:00 20.4 30 Norte 50 Norte 0 1017.4 -0.4 52
2019-04-06 13:00:00 21 35 Norte 50 Norte 0 1017.6 0.3 44
2019-04-06 12:00:00 20.2 32 Norte 52 Noroeste 0 1017.7 1.1 47
2019-04-06 11:00:00 19.1 32 Norte 45 Noroeste 0 1017.8 1.9 53
2019-04-06 10:00:00 17.7 23 Norte 41 Norte 0 1017.3 2 62
2019-04-06 09:00:00 16.9 21 Norte 30 Norte 0 1016.6 1.7 66
2019-04-06 08:00:00 15.1 14 Noroeste 24 Norte 0 1015.9 1.1 72
2019-04-06 07:00:00 15.1 16 Norte 24 Norte 0 1015.3 0.6 74
2019-04-06 06:00:00 15.3 20 Norte 28 Noroeste 0 1014.9 -0.1 75
2019-04-06 05:00:00 15.2 14 Norte 24 Norte 0 1014.8 -1 77
2019-04-06 04:00:00 15.2 12 Norte 30 Norte 0 1014.7 -1.4 79
2019-04-06 03:00:00 14.9 14 Noroeste 21 Noroeste 0 1015 -1.3 78
2019-04-06 02:00:00 15 15 Norte 37 Norte 0 1015.8 -0.4 81
2019-04-06 01:00:00 15.9 20 Noroeste 30 Noroeste 0 1016.1 0.7 73
2019-04-06 00:00:00 16 23 Norte 35 Norte 0 1016.3 1.5 71
2019-04-05 23:00:00 15.2 26 Noroeste 46 Noroeste 0.9 1016.2 1.8 84
2019-04-05 22:00:00 17.7 21 Noroeste 33 Noroeste 0 1015.4 1.4 63
2019-04-05 21:00:00 18 21 Noroeste 35 Norte 0 1014.8 0.8 61
2019-04-05 20:00:00 18.4 23 Noroeste 52 Noroeste 0 1014.4 1 63
2019-04-05 19:00:00 18.7 25 Noroeste 46 Oeste 0 1014 0.2 59
2019-04-05 18:00:00 19.5 31 Noroeste 48 Noroeste 0 1014 0 67
2019-04-05 17:00:00 20.4 30 Noroeste 50 Noroeste 0 1013.4 -1.2 67
2019-04-05 16:00:00 20.7 34 Noroeste 55 Noroeste 0.1 1013.8 -1.1 70
2019-04-05 15:00:00 22.8 35 Noroeste 48 Oeste 0 1014 -1.1 45
2019-04-05 14:00:00 21.1 30 Noroeste 55 Oeste 0 1014.6 -0.3 54
2019-04-05 13:00:00 21.6 26 Noroeste 45 Oeste 0 1014.9 0.4 49
2019-04-05 12:00:00 20.8 25 Noroeste 41 Noroeste 0 1015.1 1.3 54
2019-04-05 11:00:00 18 10 Noroeste 41 Oeste 0.7 1014.9 1.5 77
2019-04-05 10:00:00 18.6 16 Noroeste 30 Noroeste 0 1014.5 1.7 61
2019-04-05 09:00:00 17.4 8 Noroeste 21 Oeste 0 1013.8 1.2 61
2019-04-05 08:00:00 15 9 Noroeste 18 Noroeste 0 1013.4 1.2 67
2019-04-05 07:00:00 15.4 13 Norte 22 Noroeste 0 1012.8 0.4 65
2019-04-05 06:00:00 16.1 18 Noroeste 24 Noroeste 0 1012.6 -0.3 65
2019-04-05 05:00:00 15.5 14 Norte 21 Norte 0 1012.2 -1 69
2019-04-05 04:00:00 16.5 18 Norte 24 Noroeste 0 1012.4 -0.6 62
2019-04-05 03:00:00 16.7 14 Noroeste 22 Norte 0 1012.9 0.2 65
2019-04-05 02:00:00 16.8 13 Noroeste 26 Norte 0 1013.2 0.8 65
2019-04-05 01:00:00 17.4 15 Norte 24 Norte 0 1013 1.1 64
2019-04-05 00:00:00 17.5 17 Norte 28 Noroeste 0 1012.7 1.8 66
2019-04-04 23:00:00 17.7 22 Norte 32 Norte 0 1012.4 2 65
2019-04-04 22:00:00 18.1 24 Norte 39 Noroeste 0 1011.9 2 67
2019-04-04 21:00:00 18.6 22 Noroeste 32 Noroeste 0 1010.9 1.3 61
2019-04-04 20:00:00 19.6 26 Noroeste 37 Noroeste 0 1010.4 0.9 58
2019-04-04 19:00:00 21.1 30 Norte 42 Norte 0 1009.9 0.2 51
2019-04-04 18:00:00 22.4 32 Norte 45 Norte 0 1009.6 -0.3 47
2019-04-04 17:00:00 22 30 Norte 48 Norte 0 1009.5 -0.8 50
2019-04-04 16:00:00 22.9 21 Noroeste 50 Noroeste 0 1009.7 -0.8 45
2019-04-04 15:00:00 23.3 22 Noroeste 37 Noroeste 0 1009.9 -0.7 42
2019-04-04 14:00:00 22.2 22 Noroeste 46 Noroeste 0 1010.3 0.2 48
2019-04-04 13:00:00 22 21 Noroeste 35 Noroeste 0 1010.5 0.9 49
2019-04-04 12:00:00 20.1 21 Nordeste 32 Oeste 0 1010.6 1.7 69
2019-04-04 11:00:00 20.5 15 Noroeste 26 Oeste 0 1010.1 1.8 54
2019-04-04 10:00:00 19.5 16 Noroeste 28 Noroeste 0 1009.6 2 65
2019-04-04 09:00:00 18.4 18 Noroeste 28 Oeste 0 1008.9 1.4 70
2019-04-04 08:00:00 16.3 14 Noroeste 30 Oeste 0 1008.3 0.9 80
2019-04-04 07:00:00 16.6 18 Oeste 24 Oeste 0 1007.6 0.2 79
2019-04-04 06:00:00 16.7 4 Este 18 Este 0 1007.5 -0.8 79
2019-04-04 05:00:00 16 4 Este 15 Oeste 0 1007.4 -1.2 78
2019-04-04 04:00:00 16.6 9 Sudoeste 15 Sudoeste 0 1007.4 -1.9 75
2019-04-04 03:00:00 16.6 13 Oeste 17 Oeste 0 1008.3 -1.2 74
2019-04-04 02:00:00 16.7 11 Oeste 17 Oeste 0 1008.6 -0.8 73
2019-04-04 01:00:00 16.4 11 Oeste 15 Oeste 0 1009.3 0.2 73
2019-04-04 00:00:00 17.1 13 Oeste 18 Oeste 0 1009.5 1.4 71
2019-04-03 23:00:00 17.9 12 Oeste 21 Noroeste 0 1009.4 1.9 71
2019-04-03 22:00:00 18.4 18 Noroeste 28 Noroeste 0 1009.1 1.8 67
2019-04-03 21:00:00 18.7 21 Oeste 41 Noroeste 0 1008.1 1.1 66
2019-04-03 20:00:00 19.7 26 Noroeste 41 Oeste 0 1007.5 0.6 62
2019-04-03 19:00:00 21.1 28 Oeste 50 Oeste 0 1007.3 0 55
2019-04-03 18:00:00 22.1 32 Oeste 46 Oeste 0 1007 -0.2 49
2019-04-03 17:00:00 22.1 31 Oeste 48 Noroeste 0 1006.9 -1 47
2019-04-03 16:00:00 22.1 31 Noroeste 46 Oeste 0 1007.3 -1.2 53
2019-04-03 15:00:00 22.7 30 Oeste 52 Noroeste 0 1007.2 -2 55
2019-04-03 14:00:00 20.2 27 Noroeste 41 Noroeste 0 1007.9 -0.6 67
2019-04-03 13:00:00 19.6 14 Este 28 Sudeste 0 1008.5 0.4 79
2019-04-03 12:00:00 20.2 8 Sur 32 Noroeste 0 1009.2 1.3 69
2019-04-03 11:00:00 21.4 18 Noroeste 48 Oeste 0 1008.5 1.2 60
2019-04-03 10:00:00 20.4 10 Noroeste 26 Oeste 0 1008.1 1.2 69
2019-04-03 09:00:00 19 15 Oeste 41 Oeste 0 1007.9 1.5 71
2019-04-03 08:00:00 17.3 20 Oeste 35 Oeste 0 1007.3 0.9 81
2019-04-03 07:00:00 17.3 18 Noroeste 37 Noroeste 0 1006.9 0 81
2019-04-03 06:00:00 17.7 27 Noroeste 35 Oeste 0 1006.4 -0.7 77
2019-04-03 05:00:00 17.8 22 Noroeste 33 Oeste 0 1006.4 -1.4 73
2019-04-03 04:00:00 17.9 21 Noroeste 32 Oeste 0 1006.9 -1.3 77
2019-04-03 03:00:00 17.9 22 Noroeste 35 Noroeste 0 1007.1 -1.4 80
2019-04-03 02:00:00 18.2 22 Noroeste 37 Oeste 0 1007.8 -0.5 79
2019-04-03 01:00:00 18.6 20 Oeste 32 Oeste 0 1008.2 0.4 75
2019-04-03 00:00:00 18.7 5 Norte 26 Oeste 0 1008.5 -- 67
2019-04-02 23:00:00 19.1 20 Noroeste 28 Noroeste 0 1008.3 -- 73
2019-04-02 22:00:00 19.5 16 Noroeste -- -- -- 1007.8 -- 67
2019-04-02 21:00:00 -- -- -- -- -- -- -- -- --
2019-04-02 20:00:00 -- -- -- -- -- -- -- -- --
2019-04-02 19:00:00 -- -- -- -- -- -- -- -- --
2019-04-02 18:00:00 21.5 23 Nordeste 33 Nordeste 0 1005.1 -2 72
2019-04-02 17:00:00 21.6 27 Nordeste 33 Nordeste 0 1005.8 -2.1 70
2019-04-02 16:00:00 21.8 22 Nordeste 28 Nordeste 0 1006.7 -1.8 68
2019-04-02 15:00:00 21.8 21 Nordeste 26 Norte 0 1007.1 -1.9 68
2019-04-02 14:00:00 21.6 15 Nordeste 22 Nordeste 0 1007.9 -1.3 68
2019-04-02 13:00:00 21.3 15 Nordeste 21 Nordeste 0 1008.5 -0.4 66
2019-04-02 12:00:00 20.8 14 Nordeste 21 Este 0 1009 0.2 67
2019-04-02 11:00:00 20.2 13 Nordeste 18 Norte 0 1009.2 0.8 71
2019-04-02 10:00:00 19.6 11 Nordeste 18 Este 0 1008.9 0.7 74
2019-04-02 09:00:00 18.6 13 Este 21 Este 0 1008.8 0.5 78
2019-04-02 08:00:00 17.7 15 Este 24 Este 0 1008.4 0 80
2019-04-02 07:00:00 17.7 17 Este 24 Este 0 1008.2 -0.7 80
2019-04-02 06:00:00 17.7 17 Este 24 Este 0 1008.3 -1.1 78
2019-04-02 05:00:00 17.8 17 Este 24 Este 0 1008.4 -1.8 78
2019-04-02 04:00:00 17.7 19 Este 24 Este 0 1008.9 -1.6 79
2019-04-02 03:00:00 17.8 17 Nordeste 24 Nordeste 0 1009.4 -1.2 79
2019-04-02 02:00:00 17.9 17 Este 22 Nordeste 0 1010.2 -0.9 80
2019-04-02 01:00:00 17.2 9 Norte 13 Norte 0 1010.5 -0.2 76
2019-04-02 00:00:00 17.5 11 Norte 13 Norte 0 1010.6 0.2 73
2019-04-01 23:00:00 17.7 8 Noroeste 15 Norte 0 1011.1 1.1 72
2019-04-01 22:00:00 17.8 10 Norte 13 Nordeste 0 1010.7 0.8 74
2019-04-01 21:00:00 18.3 8 Norte 11 Nordeste 0 1010.4 0.7 72
2019-04-01 20:00:00 18.8 5 Este 11 Este 0 1010 0.1 70
2019-04-01 19:00:00 19.3 7 Sudeste 13 Sudeste 0 1009.9 -0.7 70
2019-04-01 18:00:00 19.7 10 Sudeste 15 Sudeste 0 1009.7 -1.6 68
2019-04-01 17:00:00 19.6 10 Sudeste 15 Sudeste 0 1009.9 -1.7 66
2019-04-01 16:00:00 20.4 11 Sudeste 17 Sudeste 0 1010.6 -1.6 64
2019-04-01 15:00:00 19.6 10 Sudeste 21 Este 0 1011.3 -1.4 67
2019-04-01 14:00:00 19.9 14 Este 21 Este 0 1011.6 -1.2 64
2019-04-01 13:00:00 20.7 14 Este 21 Este 0 1012.2 -0.3 65
2019-04-01 12:00:00 20.1 13 Este 18 Este 0 1012.7 0.5 65
2019-04-01 11:00:00 19.7 14 Este 18 Este 0 1012.8 1 68
2019-04-01 10:00:00 19.3 12 Nordeste 18 Nordeste 0 1012.5 1 68
2019-04-01 09:00:00 16.7 8 Noroeste 28 Noroeste 0 1012.2 1.2 78
2019-04-01 08:00:00 14.7 11 Oeste 22 Oeste 0 1011.8 0.6 84
2019-04-01 07:00:00 15.2 11 Oeste 13 Oeste 0 1011.5 0.1 84
2019-04-01 06:00:00 15.9 13 Noroeste 17 Noroeste 0 1011 -0.9 84
2019-04-01 05:00:00 15.4 9 Oeste 13 Oeste 0 1011.2 -1.1 82
2019-04-01 04:00:00 16.3 9 Oeste 15 Noroeste 0 1011.4 -1.3 80
2019-04-01 03:00:00 16.8 8 Noroeste 13 Noroeste 0 1011.9 -1 79
2019-04-01 02:00:00 17.5 8 Oeste 11 Oeste 0 1012.3 -0.8 79
2019-04-01 01:00:00 17.7 6 Norte 21 Oeste 0 1012.7 -0.2 79
2019-04-01 00:00:00 17.9 18 Oeste 30 Noroeste 0 1012.9 0.7 80
2019-03-31 23:00:00 18.5 14 Oeste 30 Oeste 0 1013.1 1.2 75
2019-03-31 22:00:00 18.7 13 Oeste 30 Noroeste 0 1012.9 1.3 69
2019-03-31 21:00:00 19.2 23 Oeste 41 Oeste 0 1012.2 0.5 71
2019-03-31 20:00:00 19.7 25 Oeste 41 Noroeste 0 1011.9 0.2 67
2019-03-31 19:00:00 20.1 28 Noroeste 52 Noroeste 0 1011.6 -0.1 62
2019-03-31 18:00:00 20.5 26 Oeste 42 Oeste 0 1011.7 -0.3 66
2019-03-31 17:00:00 21.7 31 Oeste 45 Oeste 0 1011.7 -0.8 58
2019-03-31 16:00:00 23.7 30 Oeste 42 Oeste 0 1011.7 -2 49
2019-03-31 15:00:00 23.5 27 Oeste 46 Noroeste 0 1012 -2.2 52
2019-03-31 14:00:00 23.4 20 Oeste 32 Oeste 0 1012.5 -1.4 47
2019-03-31 13:00:00 22.6 19 Noroeste 39 Oeste 0 1013.7 0.1 50
2019-03-31 12:00:00 22.3 21 Oeste 35 Oeste 0 1014.2 1.4 49
2019-03-31 11:00:00 20.9 20 Noroeste 42 Oeste 0 1013.9 1.5 58
2019-03-31 10:00:00 19.4 23 Oeste 35 Oeste 0 1013.6 1.3 63
2019-03-31 09:00:00 17.3 13 Oeste 30 Oeste 0 1012.8 0.5 73
2019-03-31 08:00:00 16 5 Oeste 24 Oeste 0 1012.4 -0.1 74
2019-03-31 07:00:00 16.6 4 Sur 26 Oeste 0 1012.3 -0.3 72
2019-03-31 06:00:00 15.6 11 Oeste 17 Oeste 0 1012.3 -0.7 77
2019-03-31 05:00:00 15.3 4 Oeste 13 Oeste 0 1012.5 -1.2 76
2019-03-31 04:00:00 14.4 8 Sudoeste 9 Sudoeste 0 1012.6 -1.7 79
2019-03-31 00:00:00 16.6 4 Oeste 18 Noroeste 0 1014.3 0 74
2019-03-30 23:00:00 17.5 14 Noroeste 24 Noroeste 0 1014.6 0.9 70
2019-03-30 22:00:00 17.8 16 Noroeste 37 Norte 0 1014.6 1.6 68
2019-03-30 21:00:00 18.1 18 Noroeste 32 Norte 0 1014.3 1.7 64
2019-03-30 20:00:00 18.5 15 Noroeste 42 Oeste 0 1013.7 1.3 63
2019-03-30 19:00:00 19.3 12 Norte 26 Oeste 0 1013 0.8 61
2019-03-30 18:00:00 19.9 9 Sur 26 Sur 0 1012.6 0 65
2019-03-30 17:00:00 19 7 Sudeste 13 Este 0.4 1012.4 -0.9 74
2019-03-30 16:00:00 19.4 9 Este 15 Este 0 1012.2 -1.5 66
2019-03-30 15:00:00 19.2 11 Sudeste 41 Sudoeste 0.3 1012.6 -1.4 65
2019-03-30 14:00:00 19.1 19 Sur 28 Sur 0.1 1013.3 -0.6 69
2019-03-30 13:00:00 19.5 9 Sudeste 18 Sudeste 0 1013.7 0 66
2019-03-30 12:00:00 19.4 14 Este 22 Este 0 1014 0.9 65
2019-03-30 11:00:00 20.2 12 Este 21 Nordeste 0 1013.9 1.3 61
2019-03-30 10:00:00 19.4 10 Este 18 Norte 0 1013.7 1.6 62
2019-03-30 09:00:00 18.3 12 Norte 26 Noroeste 0 1013.1 1.5 65
2019-03-30 08:00:00 15.6 10 Noroeste 28 Oeste 0 1012.6 1.1 76
2019-03-30 07:00:00 14 12 Noroeste 15 Noroeste 0 1012.1 0.5 81
2019-03-30 06:00:00 14.3 10 Noroeste 15 Noroeste 0 1011.6 -0.6 82
2019-03-30 05:00:00 14.6 10 Noroeste 13 Noroeste 0 1011.5 -1.2 80
2019-03-30 04:00:00 15.2 9 Noroeste 17 Noroeste 0 1011.6 -1.4 79
2019-03-30 03:00:00 16.1 12 Noroeste 18 Noroeste 0 1012.2 -1 78
2019-03-30 02:00:00 15.2 11 Noroeste 13 Noroeste 0 1012.7 -0.7 80
2019-03-30 01:00:00 15.8 12 Noroeste 17 Noroeste 0 1013 -0.5 77
2019-03-30 00:00:00 16.3 12 Oeste 15 Noroeste 0 1013.2 0.3 75
2019-03-29 23:00:00 17.1 9 Noroeste 15 Noroeste 0 1013.4 1.3 71
2019-03-29 22:00:00 18.1 12 Noroeste 22 Noroeste 0 1013.5 2 71
2019-03-29 21:00:00 18.3 15 Noroeste 30 Noroeste 0 1012.9 1.4 71
2019-03-29 20:00:00 19 15 Noroeste 26 Norte 0 1012.1 0.5 69
2019-03-29 19:00:00 19.4 19 Nordeste 26 Nordeste 0 1011.5 -0.3 75
2019-03-29 18:00:00 19.6 16 Nordeste 21 Nordeste 0 1011.5 -0.9 71
2019-03-29 17:00:00 20.2 14 Nordeste 24 Norte 0 1011.6 -1.4 68
2019-03-29 16:00:00 20.1 10 Nordeste 18 Nordeste 0 1011.8 -1.9 68
2019-03-29 15:00:00 20.8 11 Este 21 Este 0 1012.4 -1.9 66
2019-03-29 14:00:00 20.9 13 Este 21 Este 0 1013 -1.8 64
2019-03-29 13:00:00 20.9 14 Este 21 Este 0 1013.7 -1 62
2019-03-29 12:00:00 20.5 11 Este 18 Este 0 1014.3 0.1 61
2019-03-29 11:00:00 19.9 5 Nordeste 13 Nordeste 0 1014.8 0.9 67
2019-03-29 10:00:00 19.6 6 Nordeste 13 Nordeste 0 1014.7 1.2 68
2019-03-29 09:00:00 18.7 8 Nordeste 13 Nordeste 0 1014.2 1.2 71
2019-03-29 08:00:00 16.3 6 Noroeste 17 Oeste 0 1013.9 0.9 78
2019-03-29 07:00:00 15.6 10 Noroeste 15 Nordeste 0 1013.5 0.3 80
2019-03-29 06:00:00 16.5 12 Nordeste 17 Nordeste 0 1013 -0.4 79
2019-03-29 05:00:00 17.1 14 Nordeste 21 Nordeste 0 1013 -0.8 79
2019-03-29 04:00:00 17.3 14 Nordeste 21 Nordeste 0 1013.2 -0.9 80
2019-03-29 03:00:00 17.6 15 Nordeste 21 Nordeste 0 1013.4 -1.2 80
2019-03-29 02:00:00 17.7 14 Nordeste 22 Norte 0 1013.8 -1.1 80
2019-03-29 01:00:00 17.2 15 Norte 22 Nordeste 0 1014.1 -1 82
2019-03-29 00:00:00 17.3 17 Norte 21 Norte 0 1014.6 -0.3 80
2019-03-28 23:00:00 17.9 15 Nordeste 21 Nordeste 0 1014.9 0.7 81
2019-03-28 22:00:00 18.2 14 Nordeste 18 Nordeste 0 1015.1 1.2 80
2019-03-28 21:00:00 18.3 12 Nordeste 15 Nordeste 0 1014.9 1.5 79
2019-03-28 20:00:00 18.5 11 Nordeste 15 Este 0 1014.2 0.9 76
2019-03-28 19:00:00 18.9 11 Nordeste 15 Este 0 1013.9 0.6 75
2019-03-28 18:00:00 19.6 10 Este 15 Este 0 1013.4 -0.4 73
2019-03-28 17:00:00 19.4 9 Este 15 Nordeste 0 1013.3 -0.8 72
2019-03-28 16:00:00 20.1 12 Nordeste 15 Nordeste 0 1013.3 -1 67
2019-03-28 15:00:00 19.7 10 Nordeste 15 Nordeste 0 1013.8 -1 71
2019-03-28 14:00:00 19.7 12 Nordeste 22 Este 0 1014.1 -0.9 70
2019-03-28 13:00:00 20.8 17 Este 24 Este 0 1014.3 -0.8 66
2019-03-28 12:00:00 20.7 16 Este 22 Este 0 1014.8 0 68
2019-03-28 11:00:00 20.2 16 Nordeste 22 Este 0 1015 0.6 70
2019-03-28 10:00:00 19.7 12 Nordeste 17 Nordeste 0 1015.1 1.2 71
2019-03-28 09:00:00 18.6 10 Norte 22 Norte 0 1014.8 1.4 75
2019-03-28 08:00:00 16.2 8 Noroeste 21 Noroeste 0 1014.4 1.4 82
2019-03-28 07:00:00 14.6 12 Noroeste 15 Noroeste 0 1013.9 0.9 84
2019-03-28 06:00:00 14.7 13 Noroeste 15 Noroeste 0 1013.4 0.4 82
2019-03-28 05:00:00 16.4 11 Noroeste 15 Noroeste 0 1013 -0.3 81
2019-03-28 04:00:00 16.1 9 Noroeste 13 Noroeste 0 1013 -0.6 81
2019-03-28 03:00:00 16.6 9 Oeste 11 Noroeste 0 1013 -0.8 79
2019-03-28 02:00:00 17.5 10 Noroeste 13 Noroeste 0 1013.3 -0.6 80
2019-03-28 01:00:00 18 11 Noroeste 13 Noroeste 0 1013.6 -0.1 77
2019-03-28 00:00:00 18.2 12 Noroeste 15 Noroeste 0 1013.8 0.6 77
2019-03-27 23:00:00 18.2 13 Noroeste 18 Norte 0 1013.9 1.4 75
2019-03-27 22:00:00 18.6 14 Norte 18 Noroeste 0 1013.7 1.5 75
2019-03-27 21:00:00 18.7 13 Norte 21 Norte 0 1013.2 1.7 75
2019-03-27 20:00:00 19.2 9 Nordeste 13 Nordeste 0 1012.5 1.4 80
2019-03-27 19:00:00 19.4 10 Sudeste 13 Sudeste 0 1012.2 1.3 81
2019-03-27 18:00:00 19.6 8 Sudeste 17 Sudeste 0 1011.5 0.3 78
2019-03-27 17:00:00 19.9 11 Sudeste 21 Sudeste 0 1011.1 -0.6 76
2019-03-27 16:00:00 20.9 17 Sudeste 26 Sudeste 0 1010.9 -1.2 71
2019-03-27 15:00:00 21.2 19 Sudeste 24 Sudeste 0 1011.2 -0.9 71
2019-03-27 14:00:00 21.2 16 Sudeste 24 Sudeste 0 1011.7 -0.5 70
2019-03-27 13:00:00 21.3 18 Sudeste 24 Sudeste 0 1012.1 0.2 70
2019-03-27 12:00:00 20.3 16 Sudeste 21 Sudeste 0 1012.1 0.8 73
2019-03-27 11:00:00 19.9 18 Sudeste 22 Sudeste 0 1012.2 1.5 74
2019-03-27 10:00:00 19.1 14 Sudeste 18 Sudeste 0 1011.9 1.9 77
2019-03-27 09:00:00 17.7 0 Calma 11 Sudoeste 0 1011.3 2.1 83
2019-03-27 08:00:00 14.9 3 Sur 11 Noroeste 0 1010.7 2.1 88
2019-03-27 07:00:00 13.8 4 Oeste 13 Oeste 0 1010 1.5 90
2019-03-27 06:00:00 14.2 6 Oeste 13 Noroeste 0 1009.2 0.5 89
2019-03-27 05:00:00 13.8 8 Noroeste 11 Oeste 0 1008.6 -0.2 90
2019-03-27 04:00:00 14.4 4 Oeste 11 Noroeste 0 1008.5 -0.1 87
2019-03-27 03:00:00 14.8 10 Oeste 15 Oeste 0 1008.7 -0.1 89
2019-03-27 02:00:00 15.5 12 Oeste 17 Noroeste 0 1008.8 -0.1 86
2019-03-27 01:00:00 15.1 8 Oeste 17 Oeste 0 1008.6 -0.2 86
2019-03-27 00:00:00 15.9 9 Noroeste 13 Noroeste 0 1008.8 0.7 85
2019-03-26 23:00:00 16.4 9 Noroeste 13 Noroeste 0 1008.9 2 83
2019-03-26 22:00:00 16.6 10 Oeste 17 Oeste 0 1008.8 2.8 81
2019-03-26 21:00:00 17.2 10 Noroeste 21 Oeste 0 1008.1 2.6 79
2019-03-26 20:00:00 17.8 2 Norte 13 Noroeste 0 1006.9 1.7 83
2019-03-26 19:00:00 18.6 6 Nordeste 9 Nordeste 0 1006 1.1 78
2019-03-26 18:00:00 18.3 4 Este 13 Nordeste 0.9 1005.5 0.5 80
2019-03-26 17:00:00 18.8 12 Sudeste 17 Sudeste 0 1005.2 0.1 78
2019-03-26 16:00:00 18.9 4 Sur 15 Sudeste 0.3 1004.9 -0.3 79
2019-03-26 15:00:00 18.3 13 Nordeste 18 Nordeste 0.7 1005 -0.7 84
2019-03-26 14:00:00 18.5 12 Sudeste 22 Sudeste 0.4 1005.1 -0.9 84
2019-03-26 13:00:00 19.4 18 Sudeste 26 Sudeste 0 1005.2 -0.5 72
2019-03-26 12:00:00 19.5 16 Sudeste 22 Sudeste 0 1005.7 0.3 71
2019-03-26 11:00:00 18.8 14 Sudeste 18 Sudeste 0 1006 1.5 73
2019-03-26 10:00:00 17.8 11 Sudeste 15 Sudeste 0 1005.7 1.9 79
2019-03-26 09:00:00 16.8 8 Sur 17 Sudeste 0 1005.4 1.7 84
2019-03-26 08:00:00 16.1 12 Sur 17 Sur 0 1004.5 1.1 85
2019-03-26 07:00:00 14.3 5 Oeste 13 Norte 0 1003.8 0.4 83
2019-03-26 06:00:00 15.5 10 Oeste 15 Oeste 0 1003.7 -0.1 82
2019-03-26 05:00:00 15.4 6 Oeste 13 Oeste 0 1003.4 -0.4 81
2019-03-26 04:00:00 14.9 5 Oeste 11 Sudoeste 0 1003.4 -1 80
2019-03-26 03:00:00 15.2 9 Sudoeste 11 Sudoeste 0 1003.8 -1.2 79
2019-03-26 02:00:00 15.6 9 Sudoeste 11 Sur 0 1003.8 -1.1 75
2019-03-26 01:00:00 15.8 4 Oeste 11 Sudoeste 0 1004.4 -0.6 72
2019-03-26 00:00:00 16.2 9 Sudoeste 13 Sudoeste 0 1005 0.1 72
2019-03-25 23:00:00 16.7 8 Sudoeste 18 Sudoeste 0 1004.9 0.1 69
2019-03-25 22:00:00 17 10 Sur 21 Sudoeste 0 1005 0.8 68
2019-03-25 21:00:00 17.3 9 Sudoeste 26 Oeste 0.2 1004.9 1.2 71
2019-03-25 20:00:00 17.4 23 Oeste 45 Sudoeste 0 1004.8 1.6 74
2019-03-25 19:00:00 19.6 19 Sudoeste 45 Oeste 0 1004.2 1.1 65
2019-03-25 18:00:00 20.6 24 Sudoeste 33 Sudoeste -- 1003.7 0.3 59
2019-03-25 17:00:00 22.1 21 Sudoeste 42 Sudoeste -- 1003.2 -0.9 50
2019-03-25 16:00:00 22.3 16 Oeste 48 Sudoeste -- 1003.1 -1.9 48
2019-03-25 15:00:00 22.8 18 Sudoeste 32 Sudoeste 2.8 1003.4 -2.1 46
2019-03-25 14:00:00 22.1 10 Oeste 50 Oeste 0 1004.1 -1.8 51
2019-03-25 13:00:00 22.1 11 Este 18 Este 0 1005 -0.9 58
2019-03-25 12:00:00 21.8 9 Nordeste 21 Este 0 1005.5 -0.1 60
2019-03-25 11:00:00 22.2 7 Oeste 32 Sudoeste 0 1005.9 0.7 54
2019-03-25 10:00:00 20.9 13 Sudoeste 32 Sudoeste 0 1005.9 0.8 59
2019-03-25 09:00:00 19.6 13 Sudoeste 28 Oeste 0 1005.6 0.7 60
2019-03-25 08:00:00 17.2 13 Oeste 30 Oeste 0 1005.2 0.2 71
2019-03-25 07:00:00 16.4 19 Oeste 24 Oeste 0 1005.1 -0.3 75
2019-03-25 06:00:00 16.1 14 Oeste 21 Oeste 0 1004.9 -1.1 69
2019-03-25 05:00:00 15.9 11 Oeste 15 Oeste 0 1005 -1.7 72
2019-03-25 04:00:00 16.2 10 Oeste 13 Oeste 0 1005.4 -1.9 85
2019-03-25 03:00:00 16.8 5 Oeste 11 Oeste 0 1006 -2.2 87
2019-03-25 02:00:00 17.3 5 Nordeste 17 Este 0 1006.7 -1.8 87
2019-03-25 01:00:00 18.1 11 Nordeste 17 Nordeste 0 1007.3 -0.9 85
2019-03-25 00:00:00 18.5 7 Nordeste 11 Nordeste 0 1008.2 0.7 84
2019-03-24 23:00:00 17.9 8 Norte 21 Noroeste 0 1008.5 1.4 76
2019-03-24 22:00:00 18.1 12 Noroeste 26 Noroeste 0 1008.2 1.8 74
2019-03-24 21:00:00 18.5 13 Norte 17 Norte 0 1007.5 1.1 74
2019-03-24 20:00:00 19 13 Noroeste 33 Oeste 0 1007.1 0.6 71
2019-03-24 19:00:00 19.6 28 Noroeste 42 Noroeste 0 1006.4 -0.4 72
2019-03-24 18:00:00 19.6 12 Nordeste 18 Nordeste 0 1006.4 -0.9 79
2019-03-24 17:00:00 20 12 Nordeste 22 Este 0 1006.5 -1.7 76
2019-03-24 16:00:00 20.5 14 Nordeste 22 Nordeste 0 1006.8 -2 73
2019-03-24 15:00:00 20.4 17 Nordeste 24 Nordeste 0 1007.3 -2.3 71
2019-03-24 14:00:00 20.4 15 Nordeste 22 Nordeste 0 1008.2 -1.9 69
2019-03-24 13:00:00 20.7 17 Nordeste 26 Nordeste 0 1008.8 -1.5 66
2019-03-24 12:00:00 20.1 18 Nordeste 24 Nordeste 0 1009.6 -0.2 66
2019-03-24 11:00:00 19.8 16 Nordeste 22 Nordeste 0 1010.1 0.5 65
2019-03-24 10:00:00 19.2 14 Nordeste 24 Nordeste 0 1010.3 1.5 67
2019-03-24 09:00:00 18.6 15 Norte 30 Oeste 0 1009.8 1.4 61
2019-03-24 08:00:00 15.5 9 Noroeste 22 Oeste 0 1009.6 1.3 71
2019-03-24 07:00:00 14.7 14 Noroeste 17 Noroeste 0 1008.8 0 75
2019-03-24 06:00:00 15.3 15 Norte 26 Noroeste 0 1008.4 -0.8 75
2019-03-24 05:00:00 15.4 18 Noroeste 26 Noroeste 0 1008.3 -1.3 76
2019-03-24 04:00:00 15.5 15 Norte 18 Norte 0 1008.8 -1.2 76
2019-03-24 03:00:00 15.5 13 Norte 17 Noroeste 0 1009.2 -1.2 75
2019-03-24 02:00:00 16 13 Norte 22 Norte 0 1009.6 -1 75
2019-03-24 01:00:00 16.5 17 Norte 30 Norte 0 1010 -0.7 76
2019-03-24 00:00:00 16.8 21 Norte 33 Norte 0 1010.4 0.2 73
2019-03-23 23:00:00 17.4 27 Norte 35 Nordeste 0 1010.6 0.7 73
2019-03-23 22:00:00 17.5 15 Norte 30 Norte 0 1010.7 2 69
2019-03-23 21:00:00 17.7 21 Norte 35 Norte 0 1010.2 1.9 66
2019-03-23 20:00:00 17.9 23 Norte 41 Norte 0 1009.9 1.5 69
2019-03-23 19:00:00 19 31 Norte 46 Norte 0 1008.7 -0.2 62
2019-03-23 18:00:00 20.3 37 Norte 46 Norte 0 1008.3 -1.9 59
2019-03-23 17:00:00 21.6 37 Norte 46 Norte 0 1008.4 -2.4 55
2019-03-23 16:00:00 20.8 28 Nordeste 39 Nordeste 0 1008.9 -2.2 67
2019-03-23 15:00:00 20.7 26 Nordeste 35 Norte 0 1010.2 0 66
2019-03-23 14:00:00 20.9 30 Nordeste 39 Nordeste 0 1010.8 -0.4 65
2019-03-23 13:00:00 20.7 29 Este 39 Este 0 1011.1 -0.4 68
2019-03-23 12:00:00 21 26 Nordeste 33 Nordeste 0 1010.2 -0.3 63
2019-03-23 11:00:00 20.7 25 Nordeste 39 Norte 0 1011.2 1 64
2019-03-23 10:00:00 20.4 29 Norte 46 Norte 0 1011.5 1.5 60
2019-03-23 09:00:00 18.9 28 Norte 35 Norte 0 1010.5 0.4 66
2019-03-23 08:00:00 16.7 16 Norte 26 Noroeste 0 1010.2 -0.1 67
2019-03-23 07:00:00 16.1 16 Norte 39 Norte 0 1010 -0.3 81
2019-03-23 06:00:00 16.6 21 Norte 45 Nordeste 0 1010.1 -0.1 80
2019-03-23 05:00:00 16.9 33 Nordeste 45 Norte 0 1010.3 -0.9 81
2019-03-23 04:00:00 17.1 32 Norte 41 Nordeste 0 1010.3 -1.2 80
2019-03-23 03:00:00 17 35 Norte 45 Norte 0 1010.2 -1.3 80
2019-03-23 02:00:00 17.5 31 Nordeste 41 Nordeste 0 1011.2 -0.4 83
2019-03-23 01:00:00 17.5 33 Norte 46 Norte 0 1011.5 0.3 83
2019-03-23 00:00:00 17.4 38 Nordeste 50 Nordeste 0 1011.5 0.6 82
2019-03-22 23:00:00 17.5 41 Nordeste 52 Nordeste 0 1011.6 1.5 84
2019-03-22 22:00:00 17.6 40 Nordeste 52 Nordeste 0 1011.2 1.6 82
2019-03-22 21:00:00 17.7 40 Nordeste 52 Norte 0 1010.9 1.4 82
2019-03-22 20:00:00 17.9 42 Nordeste 52 Nordeste 0 1010.1 0.5 82
2019-03-22 19:00:00 18.4 37 Nordeste 50 Nordeste 0 1009.6 -0.2 81
2019-03-22 18:00:00 19.7 30 Nordeste 42 Nordeste 0 1009.5 -1 76
2019-03-22 17:00:00 20.2 36 Nordeste 42 Nordeste 0 1009.6 -1.8 71
2019-03-22 16:00:00 20.8 33 Nordeste 45 Nordeste 0 1009.8 -2.7 69
2019-03-22 15:00:00 20.7 35 Nordeste 42 Norte 0 1010.5 -2.3 68
2019-03-22 14:00:00 20.7 30 Nordeste 39 Nordeste 0 1011.4 -1.5 67
2019-03-22 13:00:00 20.9 30 Nordeste 39 Nordeste 0 1012.5 0 65
2019-03-22 12:00:00 20.6 31 Nordeste 39 Norte 0 1012.8 0.5 65
2019-03-22 11:00:00 20.1 33 Nordeste 45 Nordeste 0 1012.9 0.8 66
2019-03-22 10:00:00 19.1 38 Nordeste 48 Nordeste 0 1012.5 0.9 67
2019-03-22 09:00:00 18 35 Nordeste 46 Nordeste 0 1012.3 0.8 70
2019-03-22 08:00:00 16.9 35 Norte 48 Norte 0 1012.1 0.8 72
2019-03-22 07:00:00 16.3 38 Norte 54 Nordeste 0 1011.6 0 72
2019-03-22 06:00:00 16.3 36 Norte 48 Norte 0 1011.5 -0.4 72
2019-03-22 05:00:00 16.3 36 Norte 46 Nordeste 0 1011.3 -1.4 73
2019-03-22 04:00:00 16.1 33 Norte 46 Norte 0 1011.6 -1.5 73
2019-03-22 03:00:00 16.6 32 Norte 46 Nordeste 0 1011.9 -1.5 73
2019-03-22 02:00:00 16.9 32 Nordeste 41 Nordeste 0 1012.7 -0.8 72
2019-03-22 01:00:00 17 36 Nordeste 42 Nordeste 0 1013.1 0.2 72
2019-03-22 00:00:00 17.1 32 Nordeste 45 Nordeste 0 1013.4 0.6 72
2019-03-21 23:00:00 16.9 36 Nordeste 50 Norte 0 1013.5 1.3 72
2019-03-21 22:00:00 17 37 Norte 50 Nordeste 0 1012.9 1.3 72
2019-03-21 21:00:00 17.3 39 Nordeste 52 Nordeste 0 1012.8 1.1 70
2019-03-21 20:00:00 17.6 40 Nordeste 52 Nordeste 0 1012.2 0.6 72
2019-03-21 19:00:00 18.2 40 Nordeste 50 Nordeste 0 1011.6 -0.2 71
2019-03-21 18:00:00 19.4 35 Nordeste 45 Nordeste 0 1011.7 -0.7 67
2019-03-21 17:00:00 20.2 35 Nordeste 45 Nordeste 0 1011.6 -1.3 64
2019-03-21 16:00:00 20.7 32 Nordeste 41 Nordeste 0 1011.8 -1.4 62
2019-03-21 15:00:00 20.5 30 Nordeste 39 Nordeste 0 1012.4 -1.4 63
2019-03-21 14:00:00 21.4 28 Nordeste 41 Nordeste 0 1012.9 -1.1 63
2019-03-21 13:00:00 21.3 31 Nordeste 39 Nordeste 0 1013.2 -0.7 64
2019-03-21 12:00:00 20.8 30 Nordeste 41 Nordeste 0 1013.8 0.6 66
2019-03-21 11:00:00 20.2 30 Nordeste 42 Nordeste 0 1014 1.3 69
2019-03-21 10:00:00 18.9 34 Nordeste 46 Nordeste 0 1013.9 1.6 73
2019-03-21 09:00:00 18.9 36 Nordeste 46 Nordeste 0 1013.2 1.2 74
2019-03-21 08:00:00 17.5 32 Nordeste 45 Nordeste 0 1012.7 1 77
2019-03-21 07:00:00 16.9 28 Norte 39 Norte 0 1012.3 0.7 81
2019-03-21 06:00:00 16.8 30 Norte 37 Norte 0 1012 -0.5 80
2019-03-21 05:00:00 17 29 Norte 41 Nordeste 0 1011.7 -1 82
2019-03-21 04:00:00 17.3 35 Nordeste 42 Nordeste 0 1011.6 -1.5 81
2019-03-21 03:00:00 17.6 29 Nordeste 39 Nordeste 0 1012.5 -- 80
2019-03-21 02:00:00 17.7 30 Nordeste 41 Norte 0 1012.7 -1.1 79
2019-03-21 01:00:00 17.4 28 Nordeste -- -- -- 1013.1 -0.6 79
2019-03-21 00:00:00 -- -- -- -- -- -- -- -- --
2019-03-20 23:00:00 17.6 30 Nordeste 41 Nordeste 0 1013.8 1.1 81
2019-03-20 22:00:00 17.7 30 Nordeste 39 Nordeste 0 1013.7 1.3 80
2019-03-20 21:00:00 18 30 Nordeste 46 Nordeste 0 1013.4 1.3 79
2019-03-20 20:00:00 18.2 35 Nordeste 45 Nordeste 0 1012.7 0.8 80
2019-03-20 19:00:00 18.7 28 Nordeste 33 Nordeste 0 1012.4 0.4 78
2019-03-20 18:00:00 19.6 24 Nordeste 32 Nordeste 0 1012.1 -0.2 73
2019-03-20 17:00:00 20.3 24 Nordeste 33 Nordeste 0 1011.9 -0.9 72
2019-03-20 16:00:00 20.8 24 Nordeste 32 Norte 0 1012 -1.4 69
2019-03-20 15:00:00 21.1 24 Nordeste 30 Nordeste 0 1012.3 -1.6 68
2019-03-20 14:00:00 21 24 Nordeste 32 Nordeste 0 1012.8 -1.4 66
2019-03-20 13:00:00 20.7 27 Nordeste 33 Nordeste 0 1013.4 -1.2 66
2019-03-20 12:00:00 20.6 29 Nordeste 39 Nordeste 0 1013.9 -0.6 66
2019-03-20 11:00:00 20.4 31 Nordeste 41 Nordeste 0 1014.2 0.4 65
2019-03-20 10:00:00 19.3 30 Nordeste 37 Nordeste 0 1014.6 1.2 69
2019-03-20 09:00:00 17.7 24 Norte 37 Norte 0 1014.5 1.5 74
2019-03-20 08:00:00 16.5 16 Norte 22 Norte 0 1013.8 1.4 78
2019-03-20 07:00:00 15.3 17 Noroeste 22 Norte 0 1013.4 0.9 77
2019-03-20 06:00:00 14.7 11 Noroeste 22 Norte 0 1013 -0.2 79
2019-03-20 05:00:00 15.2 20 Norte 26 Norte 0 1012.4 -1.5 77
2019-03-20 04:00:00 15.2 22 Norte 28 Norte 0 1012.5 -1.9 78
2019-03-20 03:00:00 15.3 17 Norte 22 Norte 0 1013.2 -2.1 77
2019-03-20 02:00:00 16.1 15 Norte 26 Norte 0 1013.9 -1.9 76
2019-03-20 01:00:00 16.5 21 Norte 33 Norte 0 1014.4 -1.2 75
2019-03-20 00:00:00 17.2 23 Nordeste 35 Norte 0 1015.3 0 73
2019-03-19 23:00:00 17.3 25 Norte 41 Nordeste 0 1015.8 0.9 71
2019-03-19 22:00:00 17.3 29 Nordeste 35 Nordeste 0 1015.6 1.3 75
2019-03-19 21:00:00 17.5 29 Nordeste 35 Nordeste 0 1015.3 1.3 74
2019-03-19 20:00:00 18.2 25 Nordeste 41 Nordeste 0 1014.9 0.9 72
2019-03-19 19:00:00 18.3 30 Nordeste 37 Nordeste 0 1014.3 0.2 75
2019-03-19 18:00:00 19.2 25 Nordeste 35 Nordeste 0 1014 -0.4 71
2019-03-19 17:00:00 19.6 26 Nordeste 37 Nordeste 0 1014 -0.9 67
2019-03-19 16:00:00 20.2 28 Nordeste 37 Nordeste 0 1014.1 -1.5 64
2019-03-19 15:00:00 20.2 28 Nordeste 37 Nordeste 0 1014.4 -1.9 64
2019-03-19 14:00:00 20.4 28 Nordeste 37 Nordeste 0 1014.9 -1.8 62
2019-03-19 13:00:00 20.4 28 Nordeste 37 Nordeste 0 1015.6 -1.2 61
2019-03-19 12:00:00 20.1 27 Nordeste 37 Nordeste 0 1016.3 -0.1 60
2019-03-19 11:00:00 19.4 29 Norte 37 Norte 0 1016.7 0.7 60
2019-03-19 10:00:00 18.4 33 Nordeste 42 Nordeste 0 1016.8 1 64
2019-03-19 09:00:00 17.7 29 Norte 42 Norte 0 1016.4 1 67
2019-03-19 08:00:00 16.6 33 Nordeste 42 Norte 0 1016 1.1 72
2019-03-19 07:00:00 16.3 27 Nordeste 37 Nordeste 0 1015.8 0.9 75
2019-03-19 06:00:00 15.9 16 Norte 28 Norte 0 1015.4 -0.1 74
2019-03-19 05:00:00 15.8 15 Norte 39 Norte 0 1014.9 -1.1 75
2019-03-19 04:00:00 16.5 35 Norte 48 Norte 0 1014.9 -1.6 72
2019-03-19 03:00:00 17.1 33 Norte 46 Norte 0 1015.5 -1.2 72
2019-03-19 02:00:00 17.4 36 Norte 50 Norte 0 1016 -0.8 72
2019-03-19 01:00:00 17.8 37 Norte 48 Norte 0 1016.5 -0.2 73
2019-03-19 00:00:00 17.9 32 Nordeste 48 Nordeste 0 1016.7 0.1 74